createdAt,value
2023-01-04T00:00:18.000Z,87.14
2023-01-04T00:01:21.000Z,87.25
2023-01-04T00:02:18.000Z,87.12
2023-01-04T00:03:18.000Z,86.96
2023-01-04T00:04:18.000Z,86.92
2023-01-04T00:05:18.000Z,86.76
2023-01-04T00:06:18.000Z,87.00
2023-01-04T00:07:18.000Z,86.85
2023-01-04T00:08:18.000Z,86.90
2023-01-04T00:09:18.000Z,86.98
2023-01-04T00:10:18.000Z,86.74
2023-01-04T00:11:20.000Z,86.79
2023-01-04T00:12:18.000Z,86.61
2023-01-04T00:13:18.000Z,86.77
2023-01-04T00:14:18.000Z,86.84
2023-01-04T00:15:18.000Z,86.82
2023-01-04T00:16:21.000Z,86.67
2023-01-04T00:17:18.000Z,86.50
2023-01-04T00:18:18.000Z,86.47
2023-01-04T00:19:18.000Z,86.49
2023-01-04T00:20:18.000Z,86.45
2023-01-04T00:21:23.000Z,86.33
2023-01-04T00:22:19.000Z,86.22
2023-01-04T00:23:18.000Z,86.26
2023-01-04T00:24:18.000Z,86.11
2023-01-04T00:25:18.000Z,86.10
2023-01-04T00:26:25.000Z,85.98
2023-01-04T00:27:18.000Z,85.90
2023-01-04T00:28:18.000Z,85.88
2023-01-04T00:29:18.000Z,85.75
2023-01-04T00:30:18.000Z,85.84
2023-01-04T00:31:18.000Z,85.80
2023-01-04T00:32:18.000Z,85.75
2023-01-04T00:33:18.000Z,85.73
2023-01-04T00:34:18.000Z,85.62
2023-01-04T00:35:18.000Z,85.57
2023-01-04T00:36:18.000Z,85.71
2023-01-04T00:37:18.000Z,85.79
2023-01-04T00:38:18.000Z,85.91
2023-01-04T00:39:19.000Z,85.94
2023-01-04T00:40:18.000Z,86.02
2023-01-04T00:41:18.000Z,85.91
2023-01-04T00:42:18.000Z,86.23
2023-01-04T00:43:18.000Z,86.09
2023-01-04T00:44:20.000Z,86.32
2023-01-04T00:45:18.000Z,86.28
2023-01-04T00:46:18.000Z,86.25
2023-01-04T00:47:18.000Z,86.29
2023-01-04T00:48:18.000Z,86.19
2023-01-04T00:49:18.000Z,86.22
2023-01-04T00:50:18.000Z,86.03
2023-01-04T00:51:18.000Z,85.87
2023-01-04T00:52:18.000Z,85.78
2023-01-04T00:53:18.000Z,85.78
2023-01-04T00:54:19.000Z,85.78
2023-01-04T00:55:18.000Z,85.69
2023-01-04T00:56:18.000Z,85.71
2023-01-04T00:57:18.000Z,85.68
2023-01-04T00:58:18.000Z,85.62
2023-01-04T00:59:19.000Z,85.69
2023-01-04T01:00:18.000Z,85.88
2023-01-04T01:01:17.000Z,86.06
2023-01-04T01:02:18.000Z,86.16
2023-01-04T01:03:18.000Z,86.40
2023-01-04T01:04:20.000Z,86.33
2023-01-04T01:05:18.000Z,86.47
2023-01-04T01:06:18.000Z,86.28
2023-01-04T01:07:17.000Z,86.31
2023-01-04T01:08:23.000Z,86.24
2023-01-04T01:09:21.000Z,86.27
2023-01-04T01:10:18.000Z,86.31
2023-01-04T01:11:19.000Z,86.37
2023-01-04T01:12:17.000Z,86.35
2023-01-04T01:13:19.000Z,86.38
2023-01-04T01:14:21.000Z,86.55
2023-01-04T01:15:18.000Z,86.44
2023-01-04T01:16:20.000Z,86.49
2023-01-04T01:17:18.000Z,87.64
2023-01-04T01:18:17.000Z,87.22
2023-01-04T01:19:18.000Z,87.02
2023-01-04T01:20:17.000Z,87.52
2023-01-04T01:21:20.000Z,87.53
2023-01-04T01:22:18.000Z,87.72
2023-01-04T01:23:18.000Z,87.86
2023-01-04T01:24:18.000Z,87.73
2023-01-04T01:25:18.000Z,87.56
2023-01-04T01:26:20.000Z,87.53
2023-01-04T01:27:18.000Z,87.49
2023-01-04T01:28:18.000Z,87.48
2023-01-04T01:29:18.000Z,87.75
2023-01-04T01:30:17.000Z,87.59
2023-01-04T01:31:21.000Z,87.56
2023-01-04T01:32:18.000Z,87.85
2023-01-04T01:33:17.000Z,87.62
2023-01-04T01:34:17.000Z,87.46
2023-01-04T01:35:17.000Z,87.89
2023-01-04T01:36:19.000Z,87.61
2023-01-04T01:37:17.000Z,87.63
2023-01-04T01:38:18.000Z,87.48
2023-01-04T01:39:18.000Z,87.54
2023-01-04T01:40:17.000Z,87.32
2023-01-04T01:41:24.000Z,87.17
2023-01-04T01:42:19.000Z,87.07
2023-01-04T01:43:20.000Z,87.15
2023-01-04T01:44:28.000Z,86.98
2023-01-04T01:45:28.000Z,86.97
2023-01-04T01:46:27.000Z,87.12
2023-01-04T01:47:25.000Z,86.99
2023-01-04T01:48:25.000Z,87.02
2023-01-04T01:49:28.000Z,86.94
2023-01-04T01:50:26.000Z,87.03
2023-01-04T01:51:18.000Z,86.96
2023-01-04T01:52:25.000Z,86.99
2023-01-04T01:53:19.000Z,87.22
2023-01-04T01:54:23.000Z,87.17
2023-01-04T01:55:18.000Z,87.63
2023-01-04T01:56:18.000Z,87.40
2023-01-04T01:57:23.000Z,87.69
2023-01-04T01:58:25.000Z,87.95
2023-01-04T01:59:20.000Z,87.79
2023-01-04T02:00:18.000Z,87.64
2023-01-04T02:01:18.000Z,88.03
2023-01-04T02:02:19.000Z,88.39
2023-01-04T02:03:21.000Z,88.15
2023-01-04T02:04:18.000Z,88.13
2023-01-04T02:05:20.000Z,88.00
2023-01-04T02:06:27.000Z,88.13
2023-01-04T02:07:22.000Z,88.29
2023-01-04T02:08:21.000Z,88.06
2023-01-04T02:09:20.000Z,88.80
2023-01-04T02:10:19.000Z,88.68
2023-01-04T02:11:18.000Z,88.43
2023-01-04T02:12:18.000Z,88.54
2023-01-04T02:13:26.000Z,88.61
2023-01-04T02:14:24.000Z,88.57
2023-01-04T02:15:22.000Z,88.63
2023-01-04T02:16:31.000Z,89.36
2023-01-04T02:17:31.000Z,89.16
2023-01-04T02:18:27.000Z,89.07
2023-01-04T02:19:28.000Z,89.01
2023-01-04T02:20:41.000Z,88.90
2023-01-04T02:21:27.000Z,88.95
2023-01-04T02:22:28.000Z,88.95
2023-01-04T02:23:37.000Z,88.78
2023-01-04T02:24:41.000Z,88.66
2023-01-04T02:25:28.000Z,88.85
2023-01-04T02:26:28.000Z,88.74
2023-01-04T02:27:34.000Z,88.67
2023-01-04T02:28:27.000Z,88.58
2023-01-04T02:29:27.000Z,88.48
2023-01-04T02:30:47.000Z,88.52
2023-01-04T02:31:27.000Z,88.48
2023-01-04T02:32:31.000Z,88.73
2023-01-04T02:33:35.000Z,88.45
2023-01-04T02:34:33.000Z,88.46
2023-01-04T02:35:27.000Z,88.56
2023-01-04T02:36:40.000Z,88.44
2023-01-04T02:37:30.000Z,88.47
2023-01-04T02:38:27.000Z,88.51
2023-01-04T02:39:33.000Z,88.35
2023-01-04T02:40:45.000Z,88.51
2023-01-04T02:41:27.000Z,88.74
2023-01-04T02:42:27.000Z,88.81
2023-01-04T02:43:32.000Z,88.80
2023-01-04T02:44:30.000Z,88.88
2023-01-04T02:45:22.000Z,89.09
2023-01-04T02:46:27.000Z,89.02
2023-01-04T02:47:36.000Z,88.94
2023-01-04T02:48:22.000Z,88.86
2023-01-04T02:49:22.000Z,88.94
2023-01-04T02:50:32.000Z,88.89
2023-01-04T02:51:28.000Z,89.17
2023-01-04T02:52:20.000Z,89.07
2023-01-04T02:53:38.000Z,89.02
2023-01-04T02:54:23.000Z,88.84
2023-01-04T02:55:17.000Z,88.85
2023-01-04T02:56:26.000Z,88.91
2023-01-04T02:57:27.000Z,89.05
2023-01-04T02:58:34.000Z,88.94
2023-01-04T02:59:42.000Z,88.98
2023-01-04T03:00:42.000Z,88.76
2023-01-04T03:01:43.000Z,89.00
2023-01-04T03:02:36.000Z,88.90
2023-01-04T03:03:32.000Z,88.93
2023-01-04T03:04:33.000Z,88.77
2023-01-04T03:05:36.000Z,88.64
2023-01-04T03:06:26.000Z,88.60
2023-01-04T03:07:26.000Z,88.78
2023-01-04T03:08:34.000Z,88.64
2023-01-04T03:09:23.000Z,88.71
2023-01-04T03:10:32.000Z,88.81
2023-01-04T03:11:32.000Z,88.87
2023-01-04T03:12:26.000Z,88.67
2023-01-04T03:13:39.000Z,89.03
2023-01-04T03:14:23.000Z,88.93
2023-01-04T03:15:22.000Z,88.71
2023-01-04T03:16:21.000Z,88.57
2023-01-04T03:17:21.000Z,88.53
2023-01-04T03:18:24.000Z,88.53
2023-01-04T03:19:36.000Z,88.51
2023-01-04T03:20:20.000Z,88.39
2023-01-04T03:21:21.000Z,88.53
2023-01-04T03:22:46.000Z,88.36
2023-01-04T03:23:28.000Z,88.36
2023-01-04T03:24:23.000Z,88.77
2023-01-04T03:25:44.000Z,88.50
2023-01-04T03:26:28.000Z,88.64
2023-01-04T03:27:23.000Z,88.78
2023-01-04T03:28:29.000Z,88.84
2023-01-04T03:29:35.000Z,88.90
2023-01-04T03:30:28.000Z,88.97
2023-01-04T03:31:42.000Z,89.07
2023-01-04T03:32:30.000Z,89.19
2023-01-04T03:33:22.000Z,89.01
2023-01-04T03:34:23.000Z,89.09
2023-01-04T03:35:42.000Z,89.21
2023-01-04T03:36:40.000Z,89.30
2023-01-04T03:37:28.000Z,89.60
2023-01-04T03:38:33.000Z,89.60
2023-01-04T03:39:43.000Z,89.64
2023-01-04T03:40:28.000Z,89.47
2023-01-04T03:41:30.000Z,89.41
2023-01-04T03:42:45.000Z,89.58
2023-01-04T03:43:42.000Z,89.45
2023-01-04T03:44:32.000Z,89.37
2023-01-04T03:45:28.000Z,89.38
2023-01-04T03:46:31.000Z,89.37
2023-01-04T03:47:30.000Z,89.37
2023-01-04T03:48:31.000Z,89.43
2023-01-04T03:49:33.000Z,89.52
2023-01-04T03:50:24.000Z,89.73
2023-01-04T03:51:27.000Z,89.63
2023-01-04T03:52:19.000Z,89.62
2023-01-04T03:53:18.000Z,89.82
2023-01-04T03:54:27.000Z,89.66
2023-01-04T03:55:18.000Z,89.77
2023-01-04T03:56:20.000Z,89.83
2023-01-04T03:57:18.000Z,89.68
2023-01-04T03:58:19.000Z,89.66
2023-01-04T03:59:21.000Z,90.01
2023-01-04T04:00:18.000Z,90.14
2023-01-04T04:01:19.000Z,89.85
2023-01-04T04:02:23.000Z,89.75
2023-01-04T04:03:18.000Z,89.74
2023-01-04T04:04:23.000Z,89.78
2023-01-04T04:05:23.000Z,89.79
2023-01-04T04:06:23.000Z,89.90
2023-01-04T04:07:23.000Z,89.98
2023-01-04T04:08:23.000Z,89.98
2023-01-04T04:09:18.000Z,89.99
2023-01-04T04:10:18.000Z,89.97
2023-01-04T04:11:23.000Z,89.94
2023-01-04T04:12:18.000Z,89.97
2023-01-04T04:13:18.000Z,90.01
2023-01-04T04:14:18.000Z,90.04
2023-01-04T04:15:18.000Z,89.95
2023-01-04T04:16:18.000Z,90.03
2023-01-04T04:17:18.000Z,89.88
2023-01-04T04:18:18.000Z,89.91
2023-01-04T04:19:18.000Z,89.93
2023-01-04T04:20:18.000Z,90.24
2023-01-04T04:21:18.000Z,90.34
2023-01-04T04:22:18.000Z,90.33
2023-01-04T04:23:18.000Z,90.42
2023-01-04T04:24:22.000Z,90.42
2023-01-04T04:25:18.000Z,90.27
2023-01-04T04:26:18.000Z,90.45
2023-01-04T04:27:18.000Z,90.20
2023-01-04T04:28:18.000Z,90.33
2023-01-04T04:29:18.000Z,90.29
2023-01-04T04:30:18.000Z,90.32
2023-01-04T04:31:18.000Z,90.22
2023-01-04T04:32:17.000Z,90.17
2023-01-04T04:33:17.000Z,90.40
2023-01-04T04:34:17.000Z,90.35
2023-01-04T04:35:18.000Z,90.38
2023-01-04T04:36:17.000Z,90.41
2023-01-04T04:37:18.000Z,90.57
2023-01-04T04:38:18.000Z,90.60
2023-01-04T04:39:17.000Z,90.51
2023-01-04T04:40:32.000Z,90.33
2023-01-04T04:41:23.000Z,90.37
2023-01-04T04:42:17.000Z,90.61
2023-01-04T04:43:17.000Z,90.69
2023-01-04T04:44:18.000Z,90.62
2023-01-04T04:45:17.000Z,90.61
2023-01-04T04:46:18.000Z,90.63
2023-01-04T04:47:18.000Z,90.61
2023-01-04T04:48:17.000Z,90.64
2023-01-04T04:49:17.000Z,90.84
2023-01-04T04:50:17.000Z,90.98
2023-01-04T04:51:18.000Z,90.87
2023-01-04T04:52:17.000Z,90.88
2023-01-04T04:53:18.000Z,90.96
2023-01-04T04:54:19.000Z,91.09
2023-01-04T04:55:17.000Z,90.82
2023-01-04T04:56:18.000Z,90.93
2023-01-04T04:57:17.000Z,90.91
2023-01-04T04:58:18.000Z,90.73
2023-01-04T04:59:18.000Z,91.13
2023-01-04T05:00:17.000Z,91.04
2023-01-04T05:01:18.000Z,91.02
2023-01-04T05:02:17.000Z,90.88
2023-01-04T05:03:17.000Z,90.77
2023-01-04T05:04:17.000Z,90.97
2023-01-04T05:05:17.000Z,90.90
2023-01-04T05:06:18.000Z,90.76
2023-01-04T05:07:17.000Z,90.91
2023-01-04T05:08:18.000Z,91.06
2023-01-04T05:09:17.000Z,91.02
2023-01-04T05:10:17.000Z,90.88
2023-01-04T05:11:32.000Z,91.19
2023-01-04T05:12:22.000Z,90.87
2023-01-04T05:13:17.000Z,91.03
2023-01-04T05:14:17.000Z,91.00
2023-01-04T05:15:17.000Z,91.33
2023-01-04T05:16:17.000Z,91.29
2023-01-04T05:17:17.000Z,91.16
2023-01-04T05:18:19.000Z,91.11
2023-01-04T05:19:17.000Z,91.17
2023-01-04T05:20:17.000Z,91.46
2023-01-04T05:21:17.000Z,91.44
2023-01-04T05:22:17.000Z,91.38
2023-01-04T05:23:19.000Z,91.49
2023-01-04T05:24:17.000Z,91.44
2023-01-04T05:25:17.000Z,91.26
2023-01-04T05:26:17.000Z,91.70
2023-01-04T05:27:17.000Z,91.36
2023-01-04T05:28:17.000Z,91.25
2023-01-04T05:29:22.000Z,91.26
2023-01-04T05:30:22.000Z,91.67
2023-01-04T05:31:17.000Z,91.42
2023-01-04T05:32:17.000Z,91.20
2023-01-04T05:33:26.000Z,91.16
2023-01-04T05:34:18.000Z,91.36
2023-01-04T05:35:18.000Z,91.42
2023-01-04T05:36:18.000Z,91.43
2023-01-04T05:37:17.000Z,91.70
2023-01-04T05:38:19.000Z,91.38
2023-01-04T05:39:18.000Z,91.48
2023-01-04T05:40:18.000Z,91.41
2023-01-04T05:41:23.000Z,91.37
2023-01-04T05:42:23.000Z,91.40
2023-01-04T05:43:19.000Z,91.35
2023-01-04T05:44:18.000Z,91.41
2023-01-04T05:45:21.000Z,91.34
2023-01-04T05:46:18.000Z,91.18
2023-01-04T05:47:18.000Z,91.36
2023-01-04T05:48:18.000Z,91.40
2023-01-04T05:49:18.000Z,91.69
2023-01-04T05:50:19.000Z,91.45
2023-01-04T05:51:18.000Z,91.33
2023-01-04T05:52:18.000Z,91.33
2023-01-04T05:53:18.000Z,91.41
2023-01-04T05:54:18.000Z,91.42
2023-01-04T05:55:18.000Z,91.38
2023-01-04T05:56:18.000Z,91.42
2023-01-04T05:57:18.000Z,91.25
2023-01-04T05:58:18.000Z,91.27
2023-01-04T05:59:18.000Z,91.35
2023-01-04T06:00:18.000Z,91.38
2023-01-04T06:01:18.000Z,91.39
2023-01-04T06:02:20.000Z,91.38
2023-01-04T06:03:18.000Z,91.29
2023-01-04T06:04:19.000Z,91.40
2023-01-04T06:05:18.000Z,91.44
2023-01-04T06:06:18.000Z,91.37
2023-01-04T06:07:18.000Z,91.47
2023-01-04T06:08:18.000Z,91.38
2023-01-04T06:09:18.000Z,91.34
2023-01-04T06:10:18.000Z,91.35
2023-01-04T06:11:18.000Z,91.32
2023-01-04T06:12:18.000Z,91.34
2023-01-04T06:13:19.000Z,91.32
2023-01-04T06:14:18.000Z,91.22
2023-01-04T06:15:18.000Z,91.26
2023-01-04T06:16:18.000Z,91.12
2023-01-04T06:17:18.000Z,91.20
2023-01-04T06:18:18.000Z,91.21
2023-01-04T06:19:18.000Z,91.18
2023-01-04T06:20:18.000Z,91.17
2023-01-04T06:21:18.000Z,91.19
2023-01-04T06:22:18.000Z,91.09
2023-01-04T06:23:18.000Z,91.08
2023-01-04T06:24:18.000Z,91.19
2023-01-04T06:25:18.000Z,91.20
2023-01-04T06:26:18.000Z,91.16
2023-01-04T06:27:18.000Z,91.00
2023-01-04T06:28:18.000Z,91.12
2023-01-04T06:29:18.000Z,91.04
2023-01-04T06:30:18.000Z,91.05
2023-01-04T06:31:18.000Z,91.06
2023-01-04T06:32:18.000Z,91.06
2023-01-04T06:33:18.000Z,91.06
2023-01-04T06:34:17.000Z,91.07
2023-01-04T06:35:17.000Z,91.18
2023-01-04T06:36:17.000Z,91.05
2023-01-04T06:37:18.000Z,90.95
2023-01-04T06:38:17.000Z,90.88
2023-01-04T06:39:18.000Z,90.93
2023-01-04T06:40:17.000Z,90.87
2023-01-04T06:41:18.000Z,90.86
2023-01-04T06:42:23.000Z,90.88
2023-01-04T06:43:18.000Z,90.77
2023-01-04T06:44:18.000Z,90.98
2023-01-04T06:45:17.000Z,90.81
2023-01-04T06:46:18.000Z,90.82
2023-01-04T06:47:17.000Z,90.84
2023-01-04T06:48:18.000Z,90.97
2023-01-04T06:49:17.000Z,91.07
2023-01-04T06:50:17.000Z,91.06
2023-01-04T06:51:19.000Z,90.99
2023-01-04T06:52:18.000Z,91.03
2023-01-04T06:53:17.000Z,91.02
2023-01-04T06:54:17.000Z,91.08
2023-01-04T06:55:17.000Z,91.05
2023-01-04T06:56:18.000Z,90.85
2023-01-04T06:57:17.000Z,90.84
2023-01-04T06:58:18.000Z,90.77
2023-01-04T06:59:17.000Z,91.20
2023-01-04T07:00:18.000Z,90.91
2023-01-04T07:01:17.000Z,90.93
2023-01-04T07:02:18.000Z,90.87
2023-01-04T07:03:18.000Z,90.77
2023-01-04T07:04:17.000Z,90.72
2023-01-04T07:05:17.000Z,90.88
2023-01-04T07:06:17.000Z,91.04
2023-01-04T07:07:17.000Z,90.94
2023-01-04T07:08:17.000Z,91.00
2023-01-04T07:09:17.000Z,90.97
2023-01-04T07:10:17.000Z,91.05
2023-01-04T07:11:17.000Z,91.05
2023-01-04T07:12:17.000Z,91.08
2023-01-04T07:13:17.000Z,90.93
2023-01-04T07:14:17.000Z,90.83
2023-01-04T07:15:17.000Z,90.74
2023-01-04T07:16:18.000Z,91.50
2023-01-04T07:17:17.000Z,91.23
2023-01-04T07:18:17.000Z,91.05
2023-01-04T07:19:17.000Z,91.12
2023-01-04T07:20:17.000Z,91.11
2023-01-04T07:21:17.000Z,91.01
2023-01-04T07:22:17.000Z,91.19
2023-01-04T07:23:17.000Z,91.02
2023-01-04T07:24:18.000Z,90.79
2023-01-04T07:25:17.000Z,90.73
2023-01-04T07:26:17.000Z,91.15
2023-01-04T07:27:17.000Z,91.03
2023-01-04T07:28:32.000Z,91.05
2023-01-04T07:29:17.000Z,91.05
2023-01-04T07:30:19.000Z,90.86
2023-01-04T07:31:17.000Z,90.73
2023-01-04T07:32:17.000Z,90.90
2023-01-04T07:33:17.000Z,91.00
2023-01-04T07:34:21.000Z,91.26
2023-01-04T07:35:17.000Z,90.97
2023-01-04T07:36:17.000Z,90.88
2023-01-04T07:37:17.000Z,91.11
2023-01-04T07:38:17.000Z,91.06
2023-01-04T07:39:18.000Z,91.26
2023-01-04T07:40:17.000Z,91.28
2023-01-04T07:41:17.000Z,91.56
2023-01-04T07:42:18.000Z,91.19
2023-01-04T07:43:17.000Z,91.59
2023-01-04T07:44:17.000Z,91.37
2023-01-04T07:45:17.000Z,91.20
2023-01-04T07:46:17.000Z,91.16
2023-01-04T07:47:17.000Z,90.88
2023-01-04T07:48:17.000Z,90.95
2023-01-04T07:49:17.000Z,90.90
2023-01-04T07:50:17.000Z,91.06
2023-01-04T07:51:17.000Z,90.96
2023-01-04T07:52:17.000Z,90.89
2023-01-04T07:53:17.000Z,90.80
2023-01-04T07:54:17.000Z,91.15
2023-01-04T07:55:17.000Z,91.15
2023-01-04T07:56:17.000Z,91.13
2023-01-04T07:57:17.000Z,91.27
2023-01-04T07:58:17.000Z,91.47
2023-01-04T07:59:19.000Z,91.20
2023-01-04T08:00:17.000Z,91.68
2023-01-04T08:01:17.000Z,91.86
2023-01-04T08:02:17.000Z,91.69
2023-01-04T08:03:17.000Z,91.80
2023-01-04T08:04:21.000Z,91.41
2023-01-04T08:05:17.000Z,91.24
2023-01-04T08:06:19.000Z,91.17
2023-01-04T08:07:18.000Z,91.00
2023-01-04T08:08:17.000Z,91.08
2023-01-04T08:09:18.000Z,91.06
2023-01-04T08:10:17.000Z,91.51
2023-01-04T08:11:19.000Z,91.60
2023-01-04T08:12:17.000Z,91.48
2023-01-04T08:13:17.000Z,91.63
2023-01-04T08:14:17.000Z,91.64
2023-01-04T08:15:18.000Z,91.53
2023-01-04T08:16:37.000Z,91.45
2023-01-04T08:17:17.000Z,91.45
2023-01-04T08:18:17.000Z,91.31
2023-01-04T08:19:19.000Z,91.39
2023-01-04T08:20:18.000Z,91.38
2023-01-04T08:21:17.000Z,91.26
2023-01-04T08:22:17.000Z,91.05
2023-01-04T08:23:17.000Z,90.90
2023-01-04T08:24:18.000Z,90.79
2023-01-04T08:25:17.000Z,90.78
2023-01-04T08:26:18.000Z,90.76
2023-01-04T08:27:17.000Z,90.59
2023-01-04T08:28:17.000Z,90.55
2023-01-04T08:29:17.000Z,90.56
2023-01-04T08:30:17.000Z,90.66
2023-01-04T08:31:20.000Z,90.55
2023-01-04T08:32:17.000Z,90.63
2023-01-04T08:33:18.000Z,90.51
2023-01-04T08:34:17.000Z,90.41
2023-01-04T08:35:18.000Z,90.45
2023-01-04T08:36:21.000Z,90.44
2023-01-04T08:37:18.000Z,90.30
2023-01-04T08:38:18.000Z,90.22
2023-01-04T08:39:18.000Z,90.18
2023-01-04T08:40:18.000Z,90.24
2023-01-04T08:41:18.000Z,90.30
2023-01-04T08:42:18.000Z,90.24
2023-01-04T08:43:18.000Z,89.98
2023-01-04T08:44:23.000Z,89.85
2023-01-04T08:45:18.000Z,89.73
2023-01-04T08:46:18.000Z,89.50
2023-01-04T08:47:18.000Z,89.47
2023-01-04T08:48:18.000Z,89.26
2023-01-04T08:49:19.000Z,88.87
2023-01-04T08:50:19.000Z,88.55
2023-01-04T08:51:18.000Z,88.49
2023-01-04T08:52:18.000Z,88.65
2023-01-04T08:53:18.000Z,88.27
2023-01-04T08:54:18.000Z,88.27
2023-01-04T08:55:18.000Z,88.27
2023-01-04T08:56:18.000Z,87.79
2023-01-04T08:57:18.000Z,87.64
2023-01-04T08:58:18.000Z,87.39
2023-01-04T08:59:18.000Z,86.88
2023-01-04T09:00:20.000Z,86.82
2023-01-04T09:01:18.000Z,86.55
2023-01-04T09:02:24.000Z,86.38
2023-01-04T09:03:18.000Z,87.11
2023-01-04T09:04:18.000Z,86.86
2023-01-04T09:05:18.000Z,86.68
2023-01-04T09:06:18.000Z,86.35
2023-01-04T09:07:18.000Z,86.30
2023-01-04T09:08:18.000Z,86.12
2023-01-04T09:09:18.000Z,86.05
2023-01-04T09:10:18.000Z,85.89
2023-01-04T09:11:20.000Z,85.78
2023-01-04T09:12:18.000Z,85.58
2023-01-04T09:13:19.000Z,84.96
2023-01-04T09:14:18.000Z,84.37
2023-01-04T09:15:18.000Z,84.05
2023-01-04T09:16:20.000Z,84.61
2023-01-04T09:17:18.000Z,84.87
2023-01-04T09:18:18.000Z,84.85
2023-01-04T09:19:18.000Z,84.66
2023-01-04T09:20:18.000Z,84.01
2023-01-04T09:21:20.000Z,83.58
2023-01-04T09:22:18.000Z,83.29
2023-01-04T09:23:18.000Z,83.22
2023-01-04T09:24:18.000Z,83.18
2023-01-04T09:25:18.000Z,83.41
2023-01-04T09:26:20.000Z,83.36
2023-01-04T09:27:18.000Z,83.35
2023-01-04T09:28:18.000Z,83.20
2023-01-04T09:29:18.000Z,83.07
2023-01-04T09:30:18.000Z,82.91
2023-01-04T09:31:20.000Z,83.01
2023-01-04T09:32:18.000Z,82.85
2023-01-04T09:33:18.000Z,82.24
2023-01-04T09:34:18.000Z,81.95
2023-01-04T09:35:18.000Z,82.03
2023-01-04T09:36:18.000Z,81.89
2023-01-04T09:37:17.000Z,81.99
2023-01-04T09:38:17.000Z,82.44
2023-01-04T09:39:17.000Z,81.99
2023-01-04T09:40:23.000Z,81.78
2023-01-04T09:41:26.000Z,81.73
2023-01-04T09:42:27.000Z,81.83
2023-01-04T09:43:20.000Z,81.84
2023-01-04T09:44:32.000Z,81.85
2023-01-04T09:44:32.000Z,81.85
2023-01-04T09:45:26.000Z,81.80
2023-01-04T09:46:27.000Z,81.40
2023-01-04T09:47:31.000Z,81.26
2023-01-04T09:48:23.000Z,80.70
2023-01-04T09:49:27.000Z,80.66
2023-01-04T09:50:26.000Z,81.40
2023-01-04T09:51:20.000Z,80.84
2023-01-04T09:52:25.000Z,80.59
2023-01-04T09:53:25.000Z,80.69
2023-01-04T09:54:24.000Z,80.63
2023-01-04T09:55:26.000Z,80.55
2023-01-04T09:56:24.000Z,80.60
2023-01-04T09:57:25.000Z,80.62
2023-01-04T09:58:24.000Z,80.74
2023-01-04T09:59:28.000Z,80.81
2023-01-04T10:00:28.000Z,80.92
2023-01-04T10:01:24.000Z,81.16
2023-01-04T10:02:28.000Z,80.82
2023-01-04T10:03:23.000Z,81.06
2023-01-04T10:04:29.000Z,80.96
2023-01-04T10:05:27.000Z,80.54
2023-01-04T10:06:18.000Z,80.38
2023-01-04T10:07:41.000Z,80.47
2023-01-04T10:08:18.000Z,80.51
2023-01-04T10:09:18.000Z,80.71
2023-01-04T10:10:37.000Z,80.85
2023-01-04T10:11:28.000Z,80.67
2023-01-04T10:12:31.000Z,80.92
2023-01-04T10:13:33.000Z,80.89
2023-01-04T10:14:28.000Z,80.69
2023-01-04T10:15:29.000Z,80.77
2023-01-04T10:16:38.000Z,80.96
2023-01-04T10:17:35.000Z,80.93
2023-01-04T10:17:35.000Z,80.93
2023-01-04T10:17:35.000Z,80.93
2023-01-04T10:17:35.000Z,80.93
2023-01-04T10:19:01.000Z,80.41
2023-01-04T10:19:01.000Z,80.41
2023-01-04T10:19:01.000Z,80.41
2023-01-04T10:19:58.000Z,80.45
2023-01-04T10:20:59.000Z,80.60
2023-01-04T10:21:43.000Z,80.88
2023-01-04T10:22:38.000Z,80.74
2023-01-04T10:23:31.000Z,80.70
2023-01-04T10:24:40.000Z,81.06
2023-01-04T10:25:28.000Z,81.03
2023-01-04T10:26:25.000Z,80.85
2023-01-04T10:27:42.000Z,81.05
2023-01-04T10:28:32.000Z,81.01
2023-01-04T10:29:38.000Z,81.22
2023-01-04T10:30:38.000Z,81.35
2023-01-04T10:31:27.000Z,81.26
2023-01-04T10:32:31.000Z,81.46
2023-01-04T10:33:28.000Z,81.11
2023-01-04T10:34:31.000Z,80.81
2023-01-04T10:35:26.000Z,80.75
2023-01-04T10:36:21.000Z,81.02
2023-01-04T10:37:35.000Z,81.10
2023-01-04T10:38:25.000Z,81.58
2023-01-04T10:39:22.000Z,81.21
2023-01-04T10:40:18.000Z,81.19
2023-01-04T10:41:20.000Z,80.97
2023-01-04T10:42:27.000Z,81.05
2023-01-04T10:43:40.000Z,81.13
2023-01-04T10:44:27.000Z,81.24
2023-01-04T10:45:27.000Z,81.25
2023-01-04T10:46:28.000Z,81.19
2023-01-04T10:47:30.000Z,81.18
2023-01-04T10:48:30.000Z,81.28
2023-01-04T10:49:32.000Z,81.47
2023-01-04T10:50:38.000Z,81.42
2023-01-04T10:51:29.000Z,81.36
2023-01-04T10:52:27.000Z,81.51
2023-01-04T10:53:35.000Z,81.41
2023-01-04T10:54:38.000Z,81.60
2023-01-04T10:55:31.000Z,81.66
2023-01-04T10:56:27.000Z,81.75
2023-01-04T10:57:37.000Z,81.73
2023-01-04T10:58:27.000Z,81.85
2023-01-04T10:59:40.000Z,81.93
2023-01-04T11:00:27.000Z,81.79
2023-01-04T11:01:26.000Z,81.85
2023-01-04T11:02:31.000Z,81.85
2023-01-04T11:03:25.000Z,81.66
2023-01-04T11:04:32.000Z,81.78
2023-01-04T11:05:30.000Z,81.61
2023-01-04T11:06:25.000Z,81.67
2023-01-04T11:07:25.000Z,81.83
2023-01-04T11:08:34.000Z,81.91
2023-01-04T11:09:23.000Z,81.92
2023-01-04T11:10:27.000Z,82.04
2023-01-04T11:11:24.000Z,81.98
2023-01-04T11:12:21.000Z,81.93
2023-01-04T11:13:18.000Z,81.52
2023-01-04T11:14:18.000Z,81.57
2023-01-04T11:15:18.000Z,81.67
2023-01-04T11:16:18.000Z,81.85
2023-01-04T11:17:20.000Z,81.74
2023-01-04T11:18:18.000Z,81.82
2023-01-04T11:19:18.000Z,81.83
2023-01-04T11:20:18.000Z,81.58
2023-01-04T11:21:23.000Z,81.47
2023-01-04T11:22:28.000Z,81.52
2023-01-04T11:23:19.000Z,81.68
2023-01-04T11:24:18.000Z,81.83
2023-01-04T11:25:20.000Z,81.73
2023-01-04T11:26:21.000Z,81.73
2023-01-04T11:27:24.000Z,81.90
2023-01-04T11:28:28.000Z,81.87
2023-01-04T11:29:31.000Z,81.96
2023-01-04T11:30:22.000Z,81.81
2023-01-04T11:31:32.000Z,81.82
2023-01-04T11:32:40.000Z,81.96
2023-01-04T11:33:20.000Z,82.20
2023-01-04T11:34:18.000Z,81.87
2023-01-04T11:35:38.000Z,81.84
2023-01-04T11:36:28.000Z,81.92
2023-01-04T11:37:27.000Z,81.73
2023-01-04T11:38:23.000Z,81.79
2023-01-04T11:39:23.000Z,81.92
2023-01-04T11:40:23.000Z,81.96
2023-01-04T11:41:18.000Z,82.17
2023-01-04T11:42:19.000Z,82.13
2023-01-04T11:43:19.000Z,82.12
2023-01-04T11:44:18.000Z,82.23
2023-01-04T11:45:26.000Z,82.07
2023-01-04T11:46:22.000Z,82.39
2023-01-04T11:47:20.000Z,82.43
2023-01-04T11:48:17.000Z,82.41
2023-01-04T11:49:18.000Z,82.52
2023-01-04T11:50:27.000Z,82.34
2023-01-04T11:51:33.000Z,82.30
2023-01-04T11:52:33.000Z,82.57
2023-01-04T11:53:27.000Z,82.40
2023-01-04T11:54:18.000Z,82.36
2023-01-04T11:55:24.000Z,82.42
2023-01-04T11:56:22.000Z,82.63
2023-01-04T11:57:19.000Z,82.57
2023-01-04T11:58:18.000Z,82.56
2023-01-04T11:59:20.000Z,82.71
2023-01-04T12:00:18.000Z,82.72
2023-01-04T12:01:23.000Z,82.78
2023-01-04T12:02:23.000Z,82.92
2023-01-04T12:03:28.000Z,82.93
2023-01-04T12:04:22.000Z,82.94
2023-01-04T12:05:20.000Z,82.92
2023-01-04T12:06:27.000Z,82.94
2023-01-04T12:07:30.000Z,83.04
2023-01-04T12:08:29.000Z,83.05
2023-01-04T12:09:19.000Z,83.16
2023-01-04T12:10:21.000Z,83.19
2023-01-04T12:11:29.000Z,83.02
2023-01-04T12:12:17.000Z,83.07
2023-01-04T12:13:17.000Z,83.04
2023-01-04T12:14:24.000Z,82.93
2023-01-04T12:15:30.000Z,82.84
2023-01-04T12:16:37.000Z,83.04
2023-01-04T12:17:47.000Z,82.75
2023-01-04T12:18:24.000Z,82.85
2023-01-04T12:19:19.000Z,82.94
2023-01-04T12:20:20.000Z,82.81
2023-01-04T12:21:20.000Z,82.99
2023-01-04T12:22:28.000Z,82.87
2023-01-04T12:23:19.000Z,82.99
2023-01-04T12:24:20.000Z,83.10
2023-01-04T12:25:36.000Z,82.94
2023-01-04T12:26:18.000Z,83.14
2023-01-04T12:27:17.000Z,82.93
2023-01-04T12:28:27.000Z,83.13
2023-01-04T12:29:40.000Z,83.01
2023-01-04T12:30:27.000Z,83.14
2023-01-04T12:31:26.000Z,83.25
2023-01-04T12:32:36.000Z,83.02
2023-01-04T12:33:27.000Z,83.22
2023-01-04T12:34:46.000Z,83.06
2023-01-04T12:35:27.000Z,83.03
2023-01-04T12:36:36.000Z,82.99
2023-01-04T12:37:27.000Z,82.86
2023-01-04T12:38:37.000Z,83.02
2023-01-04T12:39:41.000Z,82.84
2023-01-04T12:40:28.000Z,82.98
2023-01-04T12:41:18.000Z,82.70
2023-01-04T12:42:20.000Z,82.74
2023-01-04T12:43:24.000Z,82.86
2023-01-04T12:44:28.000Z,82.68
2023-01-04T12:45:21.000Z,82.72
2023-01-04T12:46:40.000Z,82.74